sensor_id;sensor_type;location;lat;lon;timestamp;pressure;altitude;pressure_sealevel;temperature;humidity
6090;BME280;3073;42.660;23.316;2023-05-10T00:01:21;94759.69;;;16.04;100.00
6090;BME280;3073;42.660;23.316;2023-05-10T00:03:48;94753.81;;;16.52;100.00
6090;BME280;3073;42.660;23.316;2023-05-10T00:06:15;94745.06;;;16.48;100.00
6090;BME280;3073;42.660;23.316;2023-05-10T00:08:44;94754.59;;;15.83;100.00
6090;BME280;3073;42.660;23.316;2023-05-10T00:11:11;94746.06;;;16.52;100.00
6090;BME280;3073;42.660;23.316;2023-05-10T00:13:38;94744.22;;;16.14;100.00
6090;BME280;3073;42.660;23.316;2023-05-10T00:16:06;94744.38;;;15.48;100.00
6090;BME280;3073;42.660;23.316;2023-05-10T00:18:33;94740.50;;;15.56;100.00
6090;BME280;3073;42.660;23.316;2023-05-10T00:20:59;94738.09;;;16.00;100.00
6090;BME280;3073;42.660;23.316;2023-05-10T00:23:26;94729.22;;;16.26;100.00
6090;BME280;3073;42.660;23.316;2023-05-10T00:25:55;94739.69;;;15.80;100.00
6090;BME280;3073;42.660;23.316;2023-05-10T00:28:22;94734.69;;;16.14;100.00
6090;BME280;3073;42.660;23.316;2023-05-10T00:30:49;94734.34;;;16.31;100.00
6090;BME280;3073;42.660;23.316;2023-05-10T00:33:16;94734.84;;;16.28;100.00
6090;BME280;3073;42.660;23.316;2023-05-10T00:35:43;94739.47;;;16.41;100.00
6090;BME280;3073;42.660;23.316;2023-05-10T00:38:10;94739.16;;;15.78;100.00
6090;BME280;3073;42.660;23.316;2023-05-10T00:40:37;94741.81;;;16.32;100.00
6090;BME280;3073;42.660;23.316;2023-05-10T00:43:05;94727.09;;;16.38;100.00
6090;BME280;3073;42.660;23.316;2023-05-10T00:45:32;94731.44;;;15.83;100.00
6090;BME280;3073;42.660;23.316;2023-05-10T00:48:02;94733.91;;;16.14;100.00
6090;BME280;3073;42.660;23.316;2023-05-10T00:50:29;94730.13;;;15.96;100.00
6090;BME280;3073;42.660;23.316;2023-05-10T00:52:57;94728.03;;;16.52;100.00
6090;BME280;3073;42.660;23.316;2023-05-10T00:55:25;94718.31;;;16.44;100.00
6090;BME280;3073;42.660;23.316;2023-05-10T00:57:52;94719.53;;;16.08;100.00
6090;BME280;3073;42.660;23.316;2023-05-10T01:00:21;94720.00;;;16.15;100.00
6090;BME280;3073;42.660;23.316;2023-05-10T01:02:48;94720.13;;;16.43;100.00
6090;BME280;3073;42.660;23.316;2023-05-10T01:05:15;94716.38;;;16.16;100.00
6090;BME280;3073;42.660;23.316;2023-05-10T01:07:42;94726.19;;;16.09;100.00
6090;BME280;3073;42.660;23.316;2023-05-10T01:10:09;94720.47;;;16.22;100.00
6090;BME280;3073;42.660;23.316;2023-05-10T01:12:38;94717.34;;;16.30;100.00
6090;BME280;3073;42.660;23.316;2023-05-10T01:15:08;94718.97;;;16.16;100.00
6090;BME280;3073;42.660;23.316;2023-05-10T01:17:40;94721.84;;;16.63;100.00
6090;BME280;3073;42.660;23.316;2023-05-10T01:20:09;94707.19;;;16.54;100.00
6090;BME280;3073;42.660;23.316;2023-05-10T01:23:02;94713.75;;;16.31;100.00
6090;BME280;3073;42.660;23.316;2023-05-10T01:31:52;94702.34;;;16.47;99.86
6090;BME280;3073;42.660;23.316;2023-05-10T01:34:25;94705.38;;;16.54;100.00
6090;BME280;3073;42.660;23.316;2023-05-10T01:36:57;94700.16;;;16.15;100.00
6090;BME280;3073;42.660;23.316;2023-05-10T01:39:28;94688.06;;;16.21;97.63
6090;BME280;3073;42.660;23.316;2023-05-10T01:42:02;94685.63;;;16.39;93.40
6090;BME280;3073;42.660;23.316;2023-05-10T01:44:35;94685.09;;;15.88;98.26
6090;BME280;3073;42.660;23.316;2023-05-10T01:47:07;94682.91;;;16.21;98.29
6090;BME280;3073;42.660;23.316;2023-05-10T01:49:40;94677.78;;;15.57;98.12
6090;BME280;3073;42.660;23.316;2023-05-10T01:52:11;94682.16;;;16.15;96.80
6090;BME280;3073;42.660;23.316;2023-05-10T01:54:44;94676.94;;;16.30;94.44
6090;BME280;3073;42.660;23.316;2023-05-10T01:57:16;94681.75;;;15.93;94.31
6090;BME280;3073;42.660;23.316;2023-05-10T01:59:49;94680.69;;;15.99;93.62
6090;BME280;3073;42.660;23.316;2023-05-10T02:02:20;94679.81;;;15.60;95.30
6090;BME280;3073;42.660;23.316;2023-05-10T02:04:49;94681.03;;;15.77;96.35
6090;BME280;3073;42.660;23.316;2023-05-10T02:07:17;94680.34;;;15.36;96.44
6090;BME280;3073;42.660;23.316;2023-05-10T02:09:46;94681.63;;;15.49;96.96
6090;BME280;3073;42.660;23.316;2023-05-10T02:12:15;94675.22;;;15.31;95.30
6090;BME280;3073;42.660;23.316;2023-05-10T02:14:43;94684.19;;;15.59;93.95
6090;BME280;3073;42.660;23.316;2023-05-10T02:17:11;94673.66;;;15.61;94.35
6090;BME280;3073;42.660;23.316;2023-05-10T02:19:41;94685.25;;;15.28;93.30
6090;BME280;3073;42.660;23.316;2023-05-10T02:22:10;94678.09;;;15.10;89.97
6090;BME280;3073;42.660;23.316;2023-05-10T02:24:38;94684.25;;;15.14;92.29
6090;BME280;3073;42.660;23.316;2023-05-10T02:27:06;94680.09;;;15.38;86.13
6090;BME280;3073;42.660;23.316;2023-05-10T02:29:35;94690.13;;;15.50;81.98
6090;BME280;3073;42.660;23.316;2023-05-10T02:32:03;94681.69;;;14.78;80.82
6090;BME280;3073;42.660;23.316;2023-05-10T02:34:31;94682.47;;;14.69;83.64
6090;BME280;3073;42.660;23.316;2023-05-10T02:37:01;94686.06;;;14.68;81.63
6090;BME280;3073;42.660;23.316;2023-05-10T02:39:29;94678.59;;;14.56;78.72
6090;BME280;3073;42.660;23.316;2023-05-10T02:41:58;94679.63;;;14.85;80.21
6090;BME280;3073;42.660;23.316;2023-05-10T02:44:28;94685.03;;;14.69;79.51
6090;BME280;3073;42.660;23.316;2023-05-10T02:46:57;94672.97;;;14.69;82.39
6090;BME280;3073;42.660;23.316;2023-05-10T02:49:24;94682.47;;;14.69;80.78
6090;BME280;3073;42.660;23.316;2023-05-10T02:51:55;94679.91;;;15.04;77.28
6090;BME280;3073;42.660;23.316;2023-05-10T02:54:27;94676.03;;;14.91;81.00
6090;BME280;3073;42.660;23.316;2023-05-10T02:56:58;94678.88;;;15.00;82.09
6090;BME280;3073;42.660;23.316;2023-05-10T02:59:26;94673.47;;;14.66;81.78
6090;BME280;3073;42.660;23.316;2023-05-10T03:01:53;94684.03;;;14.90;81.79
6090;BME280;3073;42.660;23.316;2023-05-10T03:04:20;94676.28;;;14.75;83.75
6090;BME280;3073;42.660;23.316;2023-05-10T03:06:47;94675.78;;;14.37;84.26
6090;BME280;3073;42.660;23.316;2023-05-10T03:09:14;94687.28;;;14.35;84.77
6090;BME280;3073;42.660;23.316;2023-05-10T03:11:49;94687.09;;;14.57;81.15
6090;BME280;3073;42.660;23.316;2023-05-10T03:14:29;94683.50;;;14.63;82.86
6090;BME280;3073;42.660;23.316;2023-05-10T03:17:06;94681.13;;;14.41;82.57
6090;BME280;3073;42.660;23.316;2023-05-10T03:19:44;94688.88;;;14.71;83.07
6090;BME280;3073;42.660;23.316;2023-05-10T03:22:19;94685.81;;;14.64;83.89
6090;BME280;3073;42.660;23.316;2023-05-10T03:24:48;94696.03;;;14.34;83.86
6090;BME280;3073;42.660;23.316;2023-05-10T03:27:17;94687.22;;;14.15;82.84
6090;BME280;3073;42.660;23.316;2023-05-10T03:29:45;94680.53;;;14.09;82.04
6090;BME280;3073;42.660;23.316;2023-05-10T03:32:12;94692.97;;;14.37;81.31
6090;BME280;3073;42.660;23.316;2023-05-10T03:34:41;94690.84;;;14.29;80.68
6090;BME280;3073;42.660;23.316;2023-05-10T03:37:08;94699.38;;;14.44;79.49
6090;BME280;3073;42.660;23.316;2023-05-10T03:39:35;94687.56;;;14.33;81.42
6090;BME280;3073;42.660;23.316;2023-05-10T03:42:02;94704.53;;;14.50;80.98
6090;BME280;3073;42.660;23.316;2023-05-10T03:44:30;94697.00;;;14.28;78.60
6090;BME280;3073;42.660;23.316;2023-05-10T03:46:58;94714.19;;;14.22;78.04
6090;BME280;3073;42.660;23.316;2023-05-10T03:49:25;94697.09;;;14.58;75.58
6090;BME280;3073;42.660;23.316;2023-05-10T03:51:52;94700.63;;;14.32;77.62
6090;BME280;3073;42.660;23.316;2023-05-10T03:54:19;94707.88;;;14.65;76.46
6090;BME280;3073;42.660;23.316;2023-05-10T03:56:46;94723.56;;;14.99;76.11
6090;BME280;3073;42.660;23.316;2023-05-10T03:59:15;94721.25;;;14.57;73.98
6090;BME280;3073;42.660;23.316;2023-05-10T04:01:44;94717.38;;;14.55;73.53
6090;BME280;3073;42.660;23.316;2023-05-10T04:04:14;94719.97;;;14.70;74.09
6090;BME280;3073;42.660;23.316;2023-05-10T04:06:41;94715.63;;;14.80;73.30
6090;BME280;3073;42.660;23.316;2023-05-10T04:09:07;94721.78;;;15.00;72.61
6090;BME280;3073;42.660;23.316;2023-05-10T04:11:34;94727.91;;;14.63;72.17
6090;BME280;3073;42.660;23.316;2023-05-10T04:14:04;94741.00;;;14.47;73.85
6090;BME280;3073;42.660;23.316;2023-05-10T04:16:37;94723.75;;;14.42;74.15
6090;BME280;3073;42.660;23.316;2023-05-10T04:19:06;94734.34;;;14.76;73.45
6090;BME280;3073;42.660;23.316;2023-05-10T04:21:33;94717.66;;;14.83;71.88
6090;BME280;3073;42.660;23.316;2023-05-10T04:24:00;94729.72;;;14.58;73.53
6090;BME280;3073;42.660;23.316;2023-05-10T04:26:27;94732.53;;;14.61;73.16
6090;BME280;3073;42.660;23.316;2023-05-10T04:28:54;94722.22;;;14.51;73.53
6090;BME280;3073;42.660;23.316;2023-05-10T04:31:20;94736.00;;;14.20;76.09
6090;BME280;3073;42.660;23.316;2023-05-10T04:33:47;94705.22;;;14.25;75.47
6090;BME280;3073;42.660;23.316;2023-05-10T04:36:17;94737.66;;;14.56;75.17
6090;BME280;3073;42.660;23.316;2023-05-10T04:38:44;94732.81;;;13.87;77.58
6090;BME280;3073;42.660;23.316;2023-05-10T04:41:11;94734.53;;;14.39;75.39
6090;BME280;3073;42.660;23.316;2023-05-10T04:43:38;94724.72;;;14.21;77.85
6090;BME280;3073;42.660;23.316;2023-05-10T04:46:05;94718.63;;;13.70;78.45
6090;BME280;3073;42.660;23.316;2023-05-10T04:48:32;94734.72;;;14.22;77.37
6090;BME280;3073;42.660;23.316;2023-05-10T04:50:59;94722.38;;;14.09;77.10
6090;BME280;3073;42.660;23.316;2023-05-10T04:53:27;94724.97;;;14.19;76.27
6090;BME280;3073;42.660;23.316;2023-05-10T04:55:54;94736.16;;;14.80;78.27
6090;BME280;3073;42.660;23.316;2023-05-10T04:58:21;94726.91;;;14.84;74.77
6090;BME280;3073;42.660;23.316;2023-05-10T05:00:48;94725.63;;;15.22;73.72
6090;BME280;3073;42.660;23.316;2023-05-10T05:03:15;94728.22;;;14.97;74.20
6090;BME280;3073;42.660;23.316;2023-05-10T05:05:42;94732.84;;;15.10;73.71
6090;BME280;3073;42.660;23.316;2023-05-10T05:08:09;94738.22;;;15.29;73.33
6090;BME280;3073;42.660;23.316;2023-05-10T05:10:38;94740.78;;;15.09;75.53
6090;BME280;3073;42.660;23.316;2023-05-10T05:13:04;94733.84;;;14.74;74.66
6090;BME280;3073;42.660;23.316;2023-05-10T05:15:31;94732.56;;;15.12;72.98
6090;BME280;3073;42.660;23.316;2023-05-10T05:17:58;94750.56;;;15.12;73.66
6090;BME280;3073;42.660;23.316;2023-05-10T05:20:25;94742.78;;;14.51;74.76
6090;BME280;3073;42.660;23.316;2023-05-10T05:22:52;94743.84;;;14.65;76.65
6090;BME280;3073;42.660;23.316;2023-05-10T05:25:19;94746.38;;;14.40;76.44
6090;BME280;3073;42.660;23.316;2023-05-10T05:27:47;94737.91;;;14.50;76.99
6090;BME280;3073;42.660;23.316;2023-05-10T05:30:14;94748.47;;;14.73;76.27
6090;BME280;3073;42.660;23.316;2023-05-10T05:32:41;94754.06;;;14.40;77.80
6090;BME280;3073;42.660;23.316;2023-05-10T05:35:08;94756.97;;;15.29;77.79
6090;BME280;3073;42.660;23.316;2023-05-10T05:37:35;94762.31;;;14.57;79.76
6090;BME280;3073;42.660;23.316;2023-05-10T05:40:03;94764.34;;;14.55;79.40
6090;BME280;3073;42.660;23.316;2023-05-10T05:42:30;94758.19;;;14.51;80.49
6090;BME280;3073;42.660;23.316;2023-05-10T05:44:59;94757.22;;;14.77;78.43
6090;BME280;3073;42.660;23.316;2023-05-10T05:47:26;94761.56;;;14.57;80.29
6090;BME280;3073;42.660;23.316;2023-05-10T05:49:53;94742.03;;;14.56;81.17
6090;BME280;3073;42.660;23.316;2023-05-10T05:52:20;94764.69;;;15.29;78.24
6090;BME280;3073;42.660;23.316;2023-05-10T05:54:47;94762.63;;;15.31;78.73
6090;BME280;3073;42.660;23.316;2023-05-10T05:57:14;94770.84;;;15.74;76.14
6090;BME280;3073;42.660;23.316;2023-05-10T05:59:41;94778.81;;;15.12;76.75
6090;BME280;3073;42.660;23.316;2023-05-10T06:02:10;94763.16;;;15.33;78.73
6090;BME280;3073;42.660;23.316;2023-05-10T06:04:37;94772.16;;;15.11;79.67
6090;BME280;3073;42.660;23.316;2023-05-10T06:07:04;94764.69;;;15.29;79.21
6090;BME280;3073;42.660;23.316;2023-05-10T06:09:31;94765.97;;;15.37;78.21
6090;BME280;3073;42.660;23.316;2023-05-10T06:11:57;94768.28;;;15.59;77.45
6090;BME280;3073;42.660;23.316;2023-05-10T06:14:24;94772.38;;;15.65;77.80
6090;BME280;3073;42.660;23.316;2023-05-10T06:16:51;94775.16;;;15.93;77.19
6090;BME280;3073;42.660;23.316;2023-05-10T06:19:19;94777.03;;;15.37;79.25
6090;BME280;3073;42.660;23.316;2023-05-10T06:21:46;94773.19;;;15.55;78.33
6090;BME280;3073;42.660;23.316;2023-05-10T06:24:13;94776.22;;;15.87;76.17
6090;BME280;3073;42.660;23.316;2023-05-10T06:26:40;94782.16;;;15.73;76.97
6090;BME280;3073;42.660;23.316;2023-05-10T06:29:07;94783.19;;;15.72;75.18
6090;BME280;3073;42.660;23.316;2023-05-10T06:31:34;94781.81;;;16.05;74.42
6090;BME280;3073;42.660;23.316;2023-05-10T06:34:01;94784.88;;;16.12;72.14
6090;BME280;3073;42.660;23.316;2023-05-10T06:36:29;94794.97;;;15.93;71.86
6090;BME280;3073;42.660;23.316;2023-05-10T06:38:56;94786.53;;;15.42;75.27
6090;BME280;3073;42.660;23.316;2023-05-10T06:41:23;94781.91;;;15.44;73.85
6090;BME280;3073;42.660;23.316;2023-05-10T06:43:49;94789.63;;;15.59;75.87
6090;BME280;3073;42.660;23.316;2023-05-10T06:46:17;94784.97;;;15.76;72.88
6090;BME280;3073;42.660;23.316;2023-05-10T06:48:44;94782.59;;;16.69;69.37
6090;BME280;3073;42.660;23.316;2023-05-10T06:51:11;94790.38;;;16.54;69.84
6090;BME280;3073;42.660;23.316;2023-05-10T06:53:39;94778.00;;;15.82;71.31
6090;BME280;3073;42.660;23.316;2023-05-10T06:56:06;94784.34;;;16.20;70.13
6090;BME280;3073;42.660;23.316;2023-05-10T06:58:33;94786.50;;;15.87;72.18
6090;BME280;3073;42.660;23.316;2023-05-10T07:01:03;94781.19;;;16.33;70.14
6090;BME280;3073;42.660;23.316;2023-05-10T07:03:30;94785.59;;;16.81;69.10
6090;BME280;3073;42.660;23.316;2023-05-10T07:06:00;94796.97;;;16.75;69.15
6090;BME280;3073;42.660;23.316;2023-05-10T07:08:29;94801.06;;;16.22;69.33
6090;BME280;3073;42.660;23.316;2023-05-10T07:11:01;94791.53;;;16.82;68.87
6090;BME280;3073;42.660;23.316;2023-05-10T07:13:29;94797.53;;;16.03;68.45
6090;BME280;3073;42.660;23.316;2023-05-10T07:15:56;94792.72;;;16.56;68.11
6090;BME280;3073;42.660;23.316;2023-05-10T07:18:23;94802.47;;;16.59;66.57
6090;BME280;3073;42.660;23.316;2023-05-10T07:20:50;94803.34;;;16.34;68.72
6090;BME280;3073;42.660;23.316;2023-05-10T07:23:17;94795.34;;;16.40;68.47
6090;BME280;3073;42.660;23.316;2023-05-10T07:25:45;94798.72;;;16.26;69.22
6090;BME280;3073;42.660;23.316;2023-05-10T07:28:14;94804.22;;;16.04;69.96
6090;BME280;3073;42.660;23.316;2023-05-10T07:30:42;94805.13;;;16.43;68.17
6090;BME280;3073;42.660;23.316;2023-05-10T07:33:09;94811.31;;;16.96;67.39
6090;BME280;3073;42.660;23.316;2023-05-10T07:35:36;94808.41;;;16.64;67.04
6090;BME280;3073;42.660;23.316;2023-05-10T07:38:03;94812.56;;;16.45;68.44
6090;BME280;3073;42.660;23.316;2023-05-10T07:40:30;94813.31;;;16.51;68.39
6090;BME280;3073;42.660;23.316;2023-05-10T07:42:57;94816.22;;;16.34;68.03
6090;BME280;3073;42.660;23.316;2023-05-10T07:45:26;94811.00;;;16.54;66.79
6090;BME280;3073;42.660;23.316;2023-05-10T07:47:53;94812.69;;;16.10;68.54
6090;BME280;3073;42.660;23.316;2023-05-10T07:50:20;94812.03;;;16.48;67.67
6090;BME280;3073;42.660;23.316;2023-05-10T07:52:47;94809.31;;;16.19;67.82
6090;BME280;3073;42.660;23.316;2023-05-10T07:55:14;94809.03;;;16.31;67.29
6090;BME280;3073;42.660;23.316;2023-05-10T07:57:42;94812.38;;;16.90;66.00
6090;BME280;3073;42.660;23.316;2023-05-10T08:00:12;94812.88;;;16.28;67.13
6090;BME280;3073;42.660;23.316;2023-05-10T08:02:41;94813.94;;;16.27;66.14
6090;BME280;3073;42.660;23.316;2023-05-10T08:05:08;94819.72;;;16.63;66.16
6090;BME280;3073;42.660;23.316;2023-05-10T08:07:34;94811.22;;;16.68;66.01
6090;BME280;3073;42.660;23.316;2023-05-10T08:10:01;94823.63;;;16.61;65.29
6090;BME280;3073;42.660;23.316;2023-05-10T08:12:31;94821.19;;;16.79;65.63
6090;BME280;3073;42.660;23.316;2023-05-10T08:14:58;94824.72;;;16.34;65.12
6090;BME280;3073;42.660;23.316;2023-05-10T08:17:24;94818.44;;;17.10;64.56
6090;BME280;3073;42.660;23.316;2023-05-10T08:19:53;94817.94;;;17.08;63.53
6090;BME280;3073;42.660;23.316;2023-05-10T08:22:19;94825.13;;;16.67;65.42
6090;BME280;3073;42.660;23.316;2023-05-10T08:24:46;94823.22;;;16.18;65.58
6090;BME280;3073;42.660;23.316;2023-05-10T08:27:13;94822.03;;;16.70;64.19
6090;BME280;3073;42.660;23.316;2023-05-10T08:29:40;94824.00;;;17.27;64.42
6090;BME280;3073;42.660;23.316;2023-05-10T08:32:07;94811.31;;;16.91;64.47
6090;BME280;3073;42.660;23.316;2023-05-10T08:34:34;94821.38;;;17.32;63.60
6090;BME280;3073;42.660;23.316;2023-05-10T08:37:03;94822.31;;;17.07;63.29
6090;BME280;3073;42.660;23.316;2023-05-10T08:39:34;94829.41;;;17.93;63.12
6090;BME280;3073;42.660;23.316;2023-05-10T08:42:03;94821.06;;;17.72;64.41
6090;BME280;3073;42.660;23.316;2023-05-10T08:44:32;94821.16;;;17.91;64.38
6090;BME280;3073;42.660;23.316;2023-05-10T08:46:59;94823.59;;;17.05;65.93
6090;BME280;3073;42.660;23.316;2023-05-10T08:49:31;94823.78;;;17.18;66.13
6090;BME280;3073;42.660;23.316;2023-05-10T08:52:00;94821.47;;;17.17;67.33
6090;BME280;3073;42.660;23.316;2023-05-10T08:54:31;94822.28;;;17.46;64.99
6090;BME280;3073;42.660;23.316;2023-05-10T08:56:58;94825.03;;;17.26;68.22
6090;BME280;3073;42.660;23.316;2023-05-10T08:59:25;94827.63;;;17.60;66.40
6090;BME280;3073;42.660;23.316;2023-05-10T09:01:54;94828.22;;;17.13;68.28
6090;BME280;3073;42.660;23.316;2023-05-10T09:04:22;94825.03;;;17.26;66.61
6090;BME280;3073;42.660;23.316;2023-05-10T09:06:49;94813.56;;;16.59;70.58
6090;BME280;3073;42.660;23.316;2023-05-10T09:09:17;94832.91;;;17.06;69.44
6090;BME280;3073;42.660;23.316;2023-05-10T09:11:47;94828.88;;;16.89;69.54
6090;BME280;3073;42.660;23.316;2023-05-10T09:14:16;94821.56;;;17.02;67.91
6090;BME280;3073;42.660;23.316;2023-05-10T09:16:43;94829.47;;;17.20;67.94
6090;BME280;3073;42.660;23.316;2023-05-10T09:19:10;94825.56;;;16.05;68.98
6090;BME280;3073;42.660;23.316;2023-05-10T09:21:37;94821.91;;;17.29;68.55
6090;BME280;3073;42.660;23.316;2023-05-10T09:24:06;94823.09;;;17.08;68.31
6090;BME280;3073;42.660;23.316;2023-05-10T09:26:33;94820.00;;;17.44;67.00
6090;BME280;3073;42.660;23.316;2023-05-10T09:29:02;94815.97;;;16.94;68.79
6090;BME280;3073;42.660;23.316;2023-05-10T09:31:43;94823.59;;;17.10;67.49
6090;BME280;3073;42.660;23.316;2023-05-10T09:34:15;94816.06;;;17.57;66.72
6090;BME280;3073;42.660;23.316;2023-05-10T09:36:57;94817.94;;;16.59;68.37
6090;BME280;3073;42.660;23.316;2023-05-10T09:39:30;94809.38;;;16.73;68.70
6090;BME280;3073;42.660;23.316;2023-05-10T09:41:58;94810.84;;;17.62;66.19
6090;BME280;3073;42.660;23.316;2023-05-10T09:44:27;94814.66;;;17.65;66.18
6090;BME280;3073;42.660;23.316;2023-05-10T09:46:54;94817.41;;;18.02;63.92
6090;BME280;3073;42.660;23.316;2023-05-10T09:49:21;94817.31;;;17.60;65.61
6090;BME280;3073;42.660;23.316;2023-05-10T09:51:59;94816.88;;;18.29;63.11
6090;BME280;3073;42.660;23.316;2023-05-10T09:54:27;94818.47;;;16.61;64.89
6090;BME280;3073;42.660;23.316;2023-05-10T09:56:54;94815.13;;;15.51;68.61
6090;BME280;3073;42.660;23.316;2023-05-10T09:59:20;94814.81;;;15.87;69.45
6090;BME280;3073;42.660;23.316;2023-05-10T10:01:51;94800.38;;;15.91;69.66
6090;BME280;3073;42.660;23.316;2023-05-10T10:04:19;94792.19;;;16.54;68.19
6090;BME280;3073;42.660;23.316;2023-05-10T10:06:47;94800.47;;;16.99;65.41
6090;BME280;3073;42.660;23.316;2023-05-10T10:09:24;94793.97;;;16.58;67.05
6090;BME280;3073;42.660;23.316;2023-05-10T10:11:52;94803.69;;;17.15;64.25
6090;BME280;3073;42.660;23.316;2023-05-10T10:14:18;94793.50;;;17.34;63.59
6090;BME280;3073;42.660;23.316;2023-05-10T10:16:46;94791.31;;;17.80;63.48
6090;BME280;3073;42.660;23.316;2023-05-10T10:19:15;94793.03;;;16.93;62.37
6090;BME280;3073;42.660;23.316;2023-05-10T10:21:41;94788.38;;;17.29;62.03
6090;BME280;3073;42.660;23.316;2023-05-10T10:24:08;94790.56;;;18.27;61.92
6090;BME280;3073;42.660;23.316;2023-05-10T10:26:35;94789.47;;;17.51;63.82
6090;BME280;3073;42.660;23.316;2023-05-10T10:29:14;94784.38;;;17.13;65.33
6090;BME280;3073;42.660;23.316;2023-05-10T10:31:46;94789.59;;;17.70;62.08
6090;BME280;3073;42.660;23.316;2023-05-10T10:34:25;94800.28;;;17.87;62.83
6090;BME280;3073;42.660;23.316;2023-05-10T10:36:54;94799.44;;;18.39;61.24
6090;BME280;3073;42.660;23.316;2023-05-10T10:39:21;94786.56;;;17.29;63.05
6090;BME280;3073;42.660;23.316;2023-05-10T10:41:51;94796.97;;;18.29;61.26
6090;BME280;3073;42.660;23.316;2023-05-10T10:44:28;94790.31;;;17.47;62.23
6090;BME280;3073;42.660;23.316;2023-05-10T10:47:05;94801.09;;;17.83;61.45
6090;BME280;3073;42.660;23.316;2023-05-10T10:49:43;94786.72;;;17.43;63.24
6090;BME280;3073;42.660;23.316;2023-05-10T10:52:15;94790.81;;;18.49;60.38
6090;BME280;3073;42.660;23.316;2023-05-10T10:54:50;94793.31;;;18.12;61.43
6090;BME280;3073;42.660;23.316;2023-05-10T10:57:18;94793.63;;;18.29;60.21
6090;BME280;3073;42.660;23.316;2023-05-10T10:59:47;94796.19;;;17.81;59.66
6090;BME280;3073;42.660;23.316;2023-05-10T11:02:33;94789.13;;;18.39;59.59
6090;BME280;3073;42.660;23.316;2023-05-10T11:05:23;94789.78;;;18.02;60.57
6090;BME280;3073;42.660;23.316;2023-05-10T11:07:53;94800.16;;;18.87;58.15
6090;BME280;3073;42.660;23.316;2023-05-10T11:10:21;94792.41;;;18.45;59.61
6090;BME280;3073;42.660;23.316;2023-05-10T11:12:52;94788.06;;;18.40;59.77
6090;BME280;3073;42.660;23.316;2023-05-10T11:15:19;94789.66;;;18.60;58.95
6090;BME280;3073;42.660;23.316;2023-05-10T11:17:47;94781.09;;;18.41;59.03
6090;BME280;3073;42.660;23.316;2023-05-10T11:20:18;94783.78;;;19.11;57.42
6090;BME280;3073;42.660;23.316;2023-05-10T11:22:52;94786.03;;;18.98;57.48
6090;BME280;3073;42.660;23.316;2023-05-10T11:25:19;94785.59;;;19.61;56.02
6090;BME280;3073;42.660;23.316;2023-05-10T11:27:48;94792.84;;;19.78;56.27
6090;BME280;3073;42.660;23.316;2023-05-10T11:30:14;94789.59;;;19.21;56.87
6090;BME280;3073;42.660;23.316;2023-05-10T11:32:41;94784.72;;;19.33;56.27
6090;BME280;3073;42.660;23.316;2023-05-10T11:35:09;94786.72;;;18.00;58.00
6090;BME280;3073;42.660;23.316;2023-05-10T11:37:39;94783.19;;;17.00;62.58
6090;BME280;3073;42.660;23.316;2023-05-10T11:40:09;94792.09;;;17.80;60.63
6090;BME280;3073;42.660;23.316;2023-05-10T11:42:36;94781.72;;;18.09;60.62
6090;BME280;3073;42.660;23.316;2023-05-10T11:45:04;94780.44;;;18.30;60.69
6090;BME280;3073;42.660;23.316;2023-05-10T11:47:31;94784.63;;;18.69;59.64
6090;BME280;3073;42.660;23.316;2023-05-10T11:49:58;94792.38;;;18.69;59.93
6090;BME280;3073;42.660;23.316;2023-05-10T11:52:26;94784.78;;;18.77;58.91
6090;BME280;3073;42.660;23.316;2023-05-10T11:54:55;94791.31;;;19.26;58.49
6090;BME280;3073;42.660;23.316;2023-05-10T11:57:26;94782.06;;;18.45;60.75
6090;BME280;3073;42.660;23.316;2023-05-10T11:59:53;94789.44;;;18.75;58.73
6090;BME280;3073;42.660;23.316;2023-05-10T12:02:20;94790.00;;;18.72;59.45
6090;BME280;3073;42.660;23.316;2023-05-10T12:04:47;94782.13;;;18.82;57.63
6090;BME280;3073;42.660;23.316;2023-05-10T12:07:15;94782.66;;;17.37;62.49
6090;BME280;3073;42.660;23.316;2023-05-10T12:09:43;94782.97;;;18.96;58.62
6090;BME280;3073;42.660;23.316;2023-05-10T12:12:15;94777.75;;;17.69;60.46
6090;BME280;3073;42.660;23.316;2023-05-10T12:14:42;94775.41;;;17.96;61.62
6090;BME280;3073;42.660;23.316;2023-05-10T12:17:11;94775.00;;;18.08;59.22
6090;BME280;3073;42.660;23.316;2023-05-10T12:19:38;94770.03;;;18.59;59.08
6090;BME280;3073;42.660;23.316;2023-05-10T12:22:05;94785.63;;;18.54;58.91
6090;BME280;3073;42.660;23.316;2023-05-10T12:24:35;94736.16;;;16.79;63.10
6090;BME280;3073;42.660;23.316;2023-05-10T12:27:04;94755.38;;;16.92;64.05
6090;BME280;3073;42.660;23.316;2023-05-10T12:29:34;94769.72;;;16.69;66.03
6090;BME280;3073;42.660;23.316;2023-05-10T12:32:01;94752.63;;;17.17;63.64
6090;BME280;3073;42.660;23.316;2023-05-10T12:34:31;94771.34;;;16.45;66.17
6090;BME280;3073;42.660;23.316;2023-05-10T12:36:59;94775.84;;;16.78;65.97
6090;BME280;3073;42.660;23.316;2023-05-10T12:39:38;94766.22;;;17.85;62.68
6090;BME280;3073;42.660;23.316;2023-05-10T12:42:05;94766.47;;;17.60;62.71
6090;BME280;3073;42.660;23.316;2023-05-10T12:44:32;94747.97;;;17.48;63.55
6090;BME280;3073;42.660;23.316;2023-05-10T12:47:00;94755.38;;;17.26;64.95
6090;BME280;3073;42.660;23.316;2023-05-10T12:49:27;94753.28;;;17.90;63.01
6090;BME280;3073;42.660;23.316;2023-05-10T12:51:54;94753.59;;;18.08;61.07
6090;BME280;3073;42.660;23.316;2023-05-10T12:54:21;94766.97;;;17.62;62.99
6090;BME280;3073;42.660;23.316;2023-05-10T12:56:51;94752.50;;;17.32;64.17
6090;BME280;3073;42.660;23.316;2023-05-10T12:59:18;94731.31;;;17.35;63.17
6090;BME280;3073;42.660;23.316;2023-05-10T13:01:44;94756.72;;;18.05;63.11
6090;BME280;3073;42.660;23.316;2023-05-10T13:04:13;94741.47;;;16.93;66.66
6090;BME280;3073;42.660;23.316;2023-05-10T13:06:39;94746.13;;;16.42;68.08
6090;BME280;3073;42.660;23.316;2023-05-10T13:09:06;94737.09;;;16.93;66.35
6090;BME280;3073;42.660;23.316;2023-05-10T13:11:33;94731.75;;;16.36;68.91
6090;BME280;3073;42.660;23.316;2023-05-10T13:14:00;94738.03;;;16.10;70.11
6090;BME280;3073;42.660;23.316;2023-05-10T13:16:28;94742.72;;;17.01;67.19
6090;BME280;3073;42.660;23.316;2023-05-10T13:18:55;94737.31;;;17.31;66.84
6090;BME280;3073;42.660;23.316;2023-05-10T13:21:23;94720.78;;;17.03;65.91
6090;BME280;3073;42.660;23.316;2023-05-10T13:23:51;94726.72;;;17.85;64.70